sensor_id;sensor_type;location;lat;lon;timestamp;P1;durP1;ratioP1;P2;durP2;ratioP2
73437;SDS011;66471;56.532;21.020;2023-12-20T07:15:03;9.82;;;2.20;;
73437;SDS011;66471;56.532;21.020;2023-12-20T07:17:32;6.15;;;2.30;;
73437;SDS011;66471;56.532;21.020;2023-12-20T07:20:01;7.28;;;2.40;;
73437;SDS011;66471;56.532;21.020;2023-12-20T07:22:30;4.20;;;2.40;;
73437;SDS011;66471;56.532;21.020;2023-12-20T07:24:58;10.40;;;2.78;;
73437;SDS011;66471;56.532;21.020;2023-12-20T07:27:26;5.40;;;1.70;;
73437;SDS011;66471;56.532;21.020;2023-12-20T07:29:54;8.30;;;2.03;;
73437;SDS011;66471;56.532;21.020;2023-12-20T07:32:21;8.73;;;2.70;;
73437;SDS011;66471;56.532;21.020;2023-12-20T07:34:48;7.90;;;2.03;;
73437;SDS011;66471;56.532;21.020;2023-12-20T07:37:17;6.70;;;1.90;;
73437;SDS011;66471;56.532;21.020;2023-12-20T07:39:45;12.03;;;1.83;;
73437;SDS011;66471;56.532;21.020;2023-12-20T07:42:12;10.20;;;2.30;;
73437;SDS011;66471;56.532;21.020;2023-12-20T07:44:40;5.03;;;2.25;;
73437;SDS011;66471;56.532;21.020;2023-12-20T07:47:13;5.93;;;2.08;;
73437;SDS011;66471;56.532;21.020;2023-12-20T07:49:45;3.95;;;1.40;;
73437;SDS011;66471;56.532;21.020;2023-12-20T07:52:13;8.77;;;1.43;;
73437;SDS011;66471;56.532;21.020;2023-12-20T07:54:40;10.48;;;2.08;;
73437;SDS011;66471;56.532;21.020;2023-12-20T07:57:12;8.48;;;1.80;;
73437;SDS011;66471;56.532;21.020;2023-12-20T07:59:39;11.60;;;1.55;;
73437;SDS011;66471;56.532;21.020;2023-12-20T08:02:11;9.52;;;2.15;;
73437;SDS011;66471;56.532;21.020;2023-12-20T08:04:39;8.63;;;1.73;;
73437;SDS011;66471;56.532;21.020;2023-12-20T08:07:11;5.00;;;1.15;;
73437;SDS011;66471;56.532;21.020;2023-12-20T08:09:39;8.82;;;2.35;;
73437;SDS011;66471;56.532;21.020;2023-12-20T08:12:06;9.68;;;2.30;;
73437;SDS011;66471;56.532;21.020;2023-12-20T08:14:34;11.15;;;2.40;;
73437;SDS011;66471;56.532;21.020;2023-12-20T08:17:02;8.23;;;3.37;;
73437;SDS011;66471;56.532;21.020;2023-12-20T08:19:34;8.30;;;2.28;;
73437;SDS011;66471;56.532;21.020;2023-12-20T08:22:02;8.07;;;2.55;;
73437;SDS011;66471;56.532;21.020;2023-12-20T08:24:29;7.53;;;1.80;;
73437;SDS011;66471;56.532;21.020;2023-12-20T08:26:57;8.85;;;2.15;;
73437;SDS011;66471;56.532;21.020;2023-12-20T08:29:25;8.90;;;2.80;;
73437;SDS011;66471;56.532;21.020;2023-12-20T08:31:53;7.90;;;3.08;;
73437;SDS011;66471;56.532;21.020;2023-12-20T08:34:20;7.93;;;2.00;;
73437;SDS011;66471;56.532;21.020;2023-12-20T08:36:53;16.23;;;2.70;;
73437;SDS011;66471;56.532;21.020;2023-12-20T08:39:25;7.72;;;2.33;;
73437;SDS011;66471;56.532;21.020;2023-12-20T08:41:59;7.27;;;2.20;;
73437;SDS011;66471;56.532;21.020;2023-12-20T08:44:26;8.02;;;3.28;;
73437;SDS011;66471;56.532;21.020;2023-12-20T08:46:56;6.18;;;1.95;;
73437;SDS011;66471;56.532;21.020;2023-12-20T08:49:24;7.35;;;2.10;;
73437;SDS011;66471;56.532;21.020;2023-12-20T08:51:52;11.20;;;1.95;;
73437;SDS011;66471;56.532;21.020;2023-12-20T08:54:19;9.30;;;1.93;;
73437;SDS011;66471;56.532;21.020;2023-12-20T08:56:47;11.98;;;3.10;;
73437;SDS011;66471;56.532;21.020;2023-12-20T08:59:14;8.65;;;2.15;;
73437;SDS011;66471;56.532;21.020;2023-12-20T09:01:41;9.32;;;3.28;;
73437;SDS011;66471;56.532;21.020;2023-12-20T09:04:09;9.00;;;2.28;;
73437;SDS011;66471;56.532;21.020;2023-12-20T12:59:26;10.23;;;3.40;;
73437;SDS011;66471;56.532;21.020;2023-12-20T13:01:53;8.70;;;3.45;;
73437;SDS011;66471;56.532;21.020;2023-12-20T13:04:20;9.57;;;3.28;;
73437;SDS011;66471;56.532;21.020;2023-12-20T13:06:47;11.55;;;3.20;;
73437;SDS011;66471;56.532;21.020;2023-12-20T13:09:15;11.05;;;3.20;;
73437;SDS011;66471;56.532;21.020;2023-12-20T13:11:42;7.43;;;2.40;;
73437;SDS011;66471;56.532;21.020;2023-12-20T13:14:09;8.65;;;3.05;;
73437;SDS011;66471;56.532;21.020;2023-12-20T13:16:41;5.80;;;1.98;;
73437;SDS011;66471;56.532;21.020;2023-12-20T13:19:09;9.82;;;1.98;;
73437;SDS011;66471;56.532;21.020;2023-12-20T13:21:36;9.00;;;3.55;;
73437;SDS011;66471;56.532;21.020;2023-12-20T13:24:04;5.60;;;1.87;;
73437;SDS011;66471;56.532;21.020;2023-12-20T13:26:31;6.50;;;2.90;;
73437;SDS011;66471;56.532;21.020;2023-12-20T13:28:59;10.95;;;4.57;;
73437;SDS011;66471;56.532;21.020;2023-12-20T13:31:26;13.70;;;5.25;;
73437;SDS011;66471;56.532;21.020;2023-12-20T13:33:53;13.20;;;5.53;;
73437;SDS011;66471;56.532;21.020;2023-12-20T13:36:21;18.47;;;7.97;;
73437;SDS011;66471;56.532;21.020;2023-12-20T13:38:48;18.00;;;6.80;;
73437;SDS011;66471;56.532;21.020;2023-12-20T13:41:15;23.23;;;10.30;;
73437;SDS011;66471;56.532;21.020;2023-12-20T13:43:42;20.75;;;7.78;;
73437;SDS011;66471;56.532;21.020;2023-12-20T13:46:10;20.50;;;5.55;;
73437;SDS011;66471;56.532;21.020;2023-12-20T13:48:37;6.13;;;2.30;;
73437;SDS011;66471;56.532;21.020;2023-12-20T13:51:04;7.05;;;2.03;;
73437;SDS011;66471;56.532;21.020;2023-12-20T13:53:32;12.00;;;2.50;;
73437;SDS011;66471;56.532;21.020;2023-12-20T13:55:59;6.40;;;2.00;;
73437;SDS011;66471;56.532;21.020;2023-12-20T13:58:27;8.50;;;2.53;;
73437;SDS011;66471;56.532;21.020;2023-12-20T14:00:54;8.07;;;2.10;;
73437;SDS011;66471;56.532;21.020;2023-12-20T14:03:22;7.95;;;2.15;;
73437;SDS011;66471;56.532;21.020;2023-12-20T14:05:49;10.00;;;3.10;;
73437;SDS011;66471;56.532;21.020;2023-12-20T14:08:16;15.70;;;3.45;;
73437;SDS011;66471;56.532;21.020;2023-12-20T14:10:44;8.38;;;3.08;;
73437;SDS011;66471;56.532;21.020;2023-12-20T14:13:13;9.03;;;2.70;;
73437;SDS011;66471;56.532;21.020;2023-12-20T14:15:40;8.48;;;3.10;;
73437;SDS011;66471;56.532;21.020;2023-12-20T14:18:07;7.18;;;3.03;;
73437;SDS011;66471;56.532;21.020;2023-12-20T14:20:35;5.95;;;2.78;;
73437;SDS011;66471;56.532;21.020;2023-12-20T14:23:03;6.60;;;2.72;;
73437;SDS011;66471;56.532;21.020;2023-12-20T14:25:30;8.10;;;2.40;;
73437;SDS011;66471;56.532;21.020;2023-12-20T14:28:11;9.05;;;2.80;;
73437;SDS011;66471;56.532;21.020;2023-12-20T14:30:40;9.88;;;3.70;;
73437;SDS011;66471;56.532;21.020;2023-12-20T14:33:08;5.63;;;2.05;;
73437;SDS011;66471;56.532;21.020;2023-12-20T14:35:35;6.18;;;2.78;;
73437;SDS011;66471;56.532;21.020;2023-12-20T14:38:02;7.90;;;2.93;;
73437;SDS011;66471;56.532;21.020;2023-12-20T14:40:30;9.57;;;3.33;;
73437;SDS011;66471;56.532;21.020;2023-12-20T14:42:58;6.60;;;3.25;;
73437;SDS011;66471;56.532;21.020;2023-12-20T14:45:26;5.60;;;2.17;;
73437;SDS011;66471;56.532;21.020;2023-12-20T14:47:54;6.90;;;3.17;;
73437;SDS011;66471;56.532;21.020;2023-12-20T14:50:22;6.40;;;2.20;;
73437;SDS011;66471;56.532;21.020;2023-12-20T14:52:49;8.02;;;2.58;;
73437;SDS011;66471;56.532;21.020;2023-12-20T14:55:18;8.00;;;2.22;;
73437;SDS011;66471;56.532;21.020;2023-12-20T14:57:46;5.18;;;2.22;;
73437;SDS011;66471;56.532;21.020;2023-12-20T15:00:14;5.85;;;2.58;;
73437;SDS011;66471;56.532;21.020;2023-12-20T15:02:43;5.97;;;2.53;;
73437;SDS011;66471;56.532;21.020;2023-12-20T15:05:10;8.63;;;3.20;;
73437;SDS011;66471;56.532;21.020;2023-12-20T15:07:38;4.88;;;2.58;;
73437;SDS011;66471;56.532;21.020;2023-12-20T15:10:06;6.45;;;2.70;;
73437;SDS011;66471;56.532;21.020;2023-12-20T15:12:35;5.95;;;2.35;;
73437;SDS011;66471;56.532;21.020;2023-12-20T15:15:02;8.83;;;2.77;;
73437;SDS011;66471;56.532;21.020;2023-12-20T15:17:31;9.05;;;3.28;;
73437;SDS011;66471;56.532;21.020;2023-12-20T15:19:58;10.88;;;3.30;;
73437;SDS011;66471;56.532;21.020;2023-12-20T15:22:29;16.27;;;6.30;;
73437;SDS011;66471;56.532;21.020;2023-12-20T15:24:57;11.88;;;3.85;;
73437;SDS011;66471;56.532;21.020;2023-12-20T15:27:24;15.40;;;6.27;;
73437;SDS011;66471;56.532;21.020;2023-12-20T15:29:51;10.52;;;4.35;;
73437;SDS011;66471;56.532;21.020;2023-12-20T15:32:18;12.60;;;4.55;;
73437;SDS011;66471;56.532;21.020;2023-12-20T15:34:47;11.80;;;3.92;;
73437;SDS011;66471;56.532;21.020;2023-12-20T15:37:15;10.43;;;4.07;;
73437;SDS011;66471;56.532;21.020;2023-12-20T15:39:42;10.87;;;3.63;;
73437;SDS011;66471;56.532;21.020;2023-12-20T15:42:10;15.88;;;6.22;;
73437;SDS011;66471;56.532;21.020;2023-12-20T15:44:37;17.23;;;6.45;;
73437;SDS011;66471;56.532;21.020;2023-12-20T15:47:18;11.73;;;4.57;;
73437;SDS011;66471;56.532;21.020;2023-12-20T15:49:52;23.23;;;7.75;;
73437;SDS011;66471;56.532;21.020;2023-12-20T15:52:21;17.77;;;5.93;;
73437;SDS011;66471;56.532;21.020;2023-12-20T15:54:49;18.25;;;7.47;;
73437;SDS011;66471;56.532;21.020;2023-12-20T15:57:17;13.10;;;4.40;;
73437;SDS011;66471;56.532;21.020;2023-12-20T15:59:52;12.93;;;3.75;;
73437;SDS011;66471;56.532;21.020;2023-12-20T16:02:23;20.30;;;7.95;;
73437;SDS011;66471;56.532;21.020;2023-12-20T16:04:56;9.57;;;2.47;;
73437;SDS011;66471;56.532;21.020;2023-12-20T16:07:25;9.13;;;2.22;;
73437;SDS011;66471;56.532;21.020;2023-12-20T16:09:56;11.75;;;2.72;;
73437;SDS011;66471;56.532;21.020;2023-12-20T16:12:27;7.03;;;2.33;;
73437;SDS011;66471;56.532;21.020;2023-12-20T16:14:55;9.73;;;2.20;;
73437;SDS011;66471;56.532;21.020;2023-12-20T16:17:25;3.93;;;0.90;;
73437;SDS011;66471;56.532;21.020;2023-12-20T16:19:54;8.02;;;2.58;;
73437;SDS011;66471;56.532;21.020;2023-12-20T16:22:26;16.98;;;7.93;;
73437;SDS011;66471;56.532;21.020;2023-12-20T16:24:55;9.48;;;3.03;;
73437;SDS011;66471;56.532;21.020;2023-12-20T16:27:33;8.27;;;3.03;;
73437;SDS011;66471;56.532;21.020;2023-12-20T16:30:02;9.77;;;2.93;;
73437;SDS011;66471;56.532;21.020;2023-12-20T16:32:33;9.13;;;3.83;;
73437;SDS011;66471;56.532;21.020;2023-12-20T16:35:02;8.27;;;2.80;;
73437;SDS011;66471;56.532;21.020;2023-12-20T16:37:32;7.20;;;2.22;;
73437;SDS011;66471;56.532;21.020;2023-12-20T16:40:08;6.70;;;3.15;;
73437;SDS011;66471;56.532;21.020;2023-12-20T16:42:39;8.73;;;2.70;;
73437;SDS011;66471;56.532;21.020;2023-12-20T16:45:07;8.50;;;2.38;;
73437;SDS011;66471;56.532;21.020;2023-12-20T16:47:41;8.50;;;3.38;;
73437;SDS011;66471;56.532;21.020;2023-12-20T16:50:10;6.18;;;2.17;;
73437;SDS011;66471;56.532;21.020;2023-12-20T16:52:38;7.65;;;2.75;;
73437;SDS011;66471;56.532;21.020;2023-12-20T16:55:10;5.67;;;1.80;;
73437;SDS011;66471;56.532;21.020;2023-12-20T16:57:48;9.55;;;2.33;;
73437;SDS011;66471;56.532;21.020;2023-12-20T17:00:22;6.15;;;1.90;;
73437;SDS011;66471;56.532;21.020;2023-12-20T17:02:52;8.95;;;2.00;;
73437;SDS011;66471;56.532;21.020;2023-12-20T17:05:27;6.70;;;2.15;;
73437;SDS011;66471;56.532;21.020;2023-12-20T17:08:00;7.23;;;2.07;;
73437;SDS011;66471;56.532;21.020;2023-12-20T17:10:28;5.68;;;1.50;;
73437;SDS011;66471;56.532;21.020;2023-12-20T17:13:14;6.47;;;1.90;;
73437;SDS011;66471;56.532;21.020;2023-12-20T17:16:37;6.50;;;2.00;;
73437;SDS011;66471;56.532;21.020;2023-12-20T17:19:05;6.30;;;1.90;;
73437;SDS011;66471;56.532;21.020;2023-12-20T17:21:39;7.73;;;1.83;;
73437;SDS011;66471;56.532;21.020;2023-12-20T17:24:06;8.05;;;2.15;;
73437;SDS011;66471;56.532;21.020;2023-12-20T17:26:40;9.00;;;3.38;;
73437;SDS011;66471;56.532;21.020;2023-12-20T17:29:07;9.35;;;2.28;;
73437;SDS011;66471;56.532;21.020;2023-12-20T17:31:35;7.97;;;2.92;;
73437;SDS011;66471;56.532;21.020;2023-12-20T17:34:02;7.33;;;1.83;;
73437;SDS011;66471;56.532;21.020;2023-12-20T17:36:32;7.03;;;1.90;;
73437;SDS011;66471;56.532;21.020;2023-12-20T17:38:59;8.65;;;2.35;;
73437;SDS011;66471;56.532;21.020;2023-12-20T17:41:26;11.23;;;3.47;;
73437;SDS011;66471;56.532;21.020;2023-12-20T17:43:53;12.77;;;4.43;;
73437;SDS011;66471;56.532;21.020;2023-12-20T17:46:20;11.10;;;4.10;;
73437;SDS011;66471;56.532;21.020;2023-12-20T17:48:48;14.75;;;4.65;;
73437;SDS011;66471;56.532;21.020;2023-12-20T17:51:15;6.35;;;3.17;;
73437;SDS011;66471;56.532;21.020;2023-12-20T17:53:42;13.73;;;4.35;;
73437;SDS011;66471;56.532;21.020;2023-12-20T17:56:11;15.90;;;5.65;;
73437;SDS011;66471;56.532;21.020;2023-12-20T17:58:39;6.63;;;2.03;;
73437;SDS011;66471;56.532;21.020;2023-12-20T18:01:06;8.90;;;2.70;;
73437;SDS011;66471;56.532;21.020;2023-12-20T18:03:33;8.68;;;2.70;;
73437;SDS011;66471;56.532;21.020;2023-12-20T18:06:01;7.68;;;3.85;;
73437;SDS011;66471;56.532;21.020;2023-12-20T18:08:28;13.38;;;4.30;;
73437;SDS011;66471;56.532;21.020;2023-12-20T18:10:55;19.97;;;5.87;;
73437;SDS011;66471;56.532;21.020;2023-12-20T18:13:23;7.45;;;2.38;;
73437;SDS011;66471;56.532;21.020;2023-12-20T18:15:50;5.80;;;2.47;;
73437;SDS011;66471;56.532;21.020;2023-12-20T18:18:17;14.15;;;4.22;;
73437;SDS011;66471;56.532;21.020;2023-12-20T18:20:44;7.55;;;3.00;;
73437;SDS011;66471;56.532;21.020;2023-12-20T18:23:15;7.97;;;2.63;;
73437;SDS011;66471;56.532;21.020;2023-12-20T18:25:45;7.55;;;2.65;;
73437;SDS011;66471;56.532;21.020;2023-12-20T18:28:13;5.93;;;2.30;;
73437;SDS011;66471;56.532;21.020;2023-12-20T18:30:44;6.63;;;2.15;;
73437;SDS011;66471;56.532;21.020;2023-12-20T18:33:11;8.27;;;2.90;;
73437;SDS011;66471;56.532;21.020;2023-12-20T18:35:38;5.00;;;1.60;;
